Time;durP1;ratioP1;P1;durP2;ratioP2;P2;SDS_P1;SDS_P2;PMS_P1;PMS_P2;Temp;Humidity;BMP_temperature;BMP_pressure;BME280_temperature;BME280_humidity;BME280_pressure;Samples;Min_cycle;Max_cycle;Signal;HPM_P1;HPM_P2
2022/10/08 00:00:26;;;;;;;14.63;3.63;;;11.40;81.80;;;;;;5054129;28;20025;-39
2022/10/08 00:02:54;;;;;;;15.02;4.60;;;11.50;81.60;;;;;;5054257;28;20028;-38
2022/10/08 00:05:21;;;;;;;12.50;3.67;;;11.50;81.50;;;;;;5054010;28;20021;-39
2022/10/08 00:07:46;;;;;;;14.98;2.75;;;11.40;81.60;;;;;;5053950;28;20504;-39
2022/10/08 00:10:12;;;;;;;13.07;3.00;;;11.40;81.50;;;;;;5054220;28;20020;-39
2022/10/08 00:12:38;;;;;;;14.40;3.67;;;11.40;81.60;;;;;;5054062;28;20052;-38
2022/10/08 00:15:04;;;;;;;12.57;3.00;;;11.40;81.30;;;;;;5054135;28;20033;-42
2022/10/08 00:17:29;;;;;;;16.27;4.00;;;11.40;81.60;;;;;;5054732;28;20059;-39
2022/10/08 00:19:56;;;;;;;8.82;3.47;;;11.40;81.30;;;;;;5053704;28;20382;-38
2022/10/08 00:22:23;;;;;;;13.00;4.72;;;11.50;81.30;;;;;;5054055;28;20025;-39
2022/10/08 00:24:52;;;;;;;15.38;2.65;;;11.60;81.00;;;;;;5053864;28;20024;-38
2022/10/08 00:27:24;;;;;;;21.77;4.18;;;11.60;80.50;;;;;;5053832;28;20560;-38
2022/10/08 00:29:51;;;;;;;6.65;3.35;;;11.50;80.80;;;;;;5053613;28;20377;-40
2022/10/08 00:32:20;;;;;;;7.55;3.10;;;11.50;80.70;;;;;;5053681;28;20029;-39
2022/10/08 00:34:46;;;;;;;12.20;4.15;;;11.40;81.10;;;;;;5053404;28;20163;-39
2022/10/08 00:37:14;;;;;;;9.27;2.92;;;11.50;80.90;;;;;;5053783;28;20456;-39
2022/10/08 00:39:40;;;;;;;12.00;3.83;;;11.60;80.80;;;;;;5053402;28;20074;-39
2022/10/08 00:42:06;;;;;;;7.57;3.38;;;11.50;80.80;;;;;;5052136;28;20025;-38
2022/10/08 00:44:53;;;;;;;8.18;3.42;;;11.50;80.90;;;;;;5052122;28;20033;-38
2022/10/08 00:47:56;;;;;;;8.25;2.70;;;11.50;81.00;;;;;;5053709;28;20359;-38
2022/10/08 00:50:33;;;;;;;10.80;4.03;;;11.50;81.10;;;;;;5051409;28;20063;-38
2022/10/08 00:53:04;;;;;;;10.63;3.55;;;11.40;81.20;;;;;;5049999;28;20037;-38
2022/10/08 00:55:31;;;;;;;14.18;2.65;;;11.40;81.30;;;;;;5053353;28;20040;-38
2022/10/08 00:58:01;;;;;;;17.25;5.05;;;11.40;81.10;;;;;;5053293;28;20057;-39
2022/10/08 01:00:28;;;;;;;18.17;3.30;;;11.40;81.40;;;;;;5053409;28;20139;-39
2022/10/08 01:02:54;;;;;;;8.27;3.28;;;11.30;81.50;;;;;;5053031;28;20108;-38
2022/10/08 01:05:48;;;;;;;11.65;3.70;;;11.40;81.60;;;;;;5053267;28;20388;-39
2022/10/08 01:08:43;;;;;;;7.57;3.53;;;11.30;81.40;;;;;;5052994;28;20025;-40
2022/10/08 01:11:45;;;;;;;9.50;2.60;;;11.40;81.40;;;;;;5052199;28;20072;-40
2022/10/08 01:14:32;;;;;;;14.02;3.22;;;11.40;81.30;;;;;;5052951;28;20045;-37
2022/10/08 01:17:21;;;;;;;8.23;2.85;;;11.40;81.40;;;;;;5052858;28;20508;-38
2022/10/08 01:20:12;;;;;;;8.47;4.00;;;11.40;81.30;;;;;;5053051;28;20029;-38
2022/10/08 01:22:59;;;;;;;16.30;3.60;;;11.40;81.20;;;;;;5052636;28;20032;-38
2022/10/08 01:25:40;;;;;;;11.32;3.15;;;11.50;81.20;;;;;;5052874;28;20108;-39
2022/10/08 01:28:19;;;;;;;10.73;2.70;;;11.50;80.90;;;;;;5052776;28;20477;-38
2022/10/08 01:30:57;;;;;;;6.38;3.00;;;11.50;81.00;;;;;;5052742;28;20112;-39
2022/10/08 01:33:28;;;;;;;6.15;2.80;;;11.50;81.00;;;;;;5052925;28;20017;-38
2022/10/08 01:35:57;;;;;;;17.75;3.83;;;11.50;80.70;;;;;;5055434;28;20441;-38
2022/10/08 01:38:26;;;;;;;12.23;3.03;;;11.60;80.40;;;;;;5056522;28;20476;-38
2022/10/08 01:40:57;;;;;;;6.13;2.53;;;11.70;80.30;;;;;;5043096;28;20025;-47
2022/10/08 01:43:25;;;;;;;9.60;3.25;;;11.70;80.20;;;;;;5057393;28;20423;-51
2022/10/08 01:45:56;;;;;;;21.73;4.18;;;11.70;80.20;;;;;;5056421;28;20032;-47
2022/10/08 01:48:32;;;;;;;6.15;2.58;;;11.60;80.30;;;;;;5056594;28;20027;-47
2022/10/08 01:51:12;;;;;;;14.50;2.85;;;11.70;80.30;;;;;;5056994;28;20464;-49
2022/10/08 01:53:40;;;;;;;7.53;2.23;;;11.70;80.20;;;;;;5056833;28;20505;-47
2022/10/08 01:56:09;;;;;;;18.80;3.90;;;11.70;80.40;;;;;;5056631;28;20083;-46
2022/10/08 01:59:02;;;;;;;10.98;3.13;;;11.80;80.30;;;;;;5056536;28;20025;-47
2022/10/08 02:01:43;;;;;;;11.38;4.05;;;11.80;80.00;;;;;;5056600;28;20021;-49
2022/10/08 02:06:56;;;;;;;9.40;2.88;;;11.80;80.20;;;;;;5056382;28;20341;-48
2022/10/08 02:09:27;;;;;;;5.95;2.20;;;11.70;80.40;;;;;;5056367;28;20024;-47
2022/10/08 02:11:53;;;;;;;10.48;4.50;;;11.80;80.20;;;;;;5056554;28;20029;-47
2022/10/08 02:14:24;;;;;;;20.52;3.45;;;11.90;80.00;;;;;;5055811;28;20052;-48
2022/10/08 02:17:13;;;;;;;20.50;3.70;;;12.00;79.60;;;;;;5054762;28;20025;-50
2022/10/08 02:19:49;;;;;;;14.55;3.17;;;12.10;79.50;;;;;;5055539;28;20037;-46
2022/10/08 02:22:18;;;;;;;11.75;2.92;;;12.20;79.20;;;;;;5056134;28;20472;-46
2022/10/08 02:25:19;;;;;;;8.65;3.15;;;12.20;79.40;;;;;;5056066;28;20036;-46
2022/10/08 02:28:05;;;;;;;14.73;3.47;;;12.30;79.30;;;;;;5054628;28;20508;-46
2022/10/08 02:30:41;;;;;;;12.82;2.85;;;12.30;79.10;;;;;;5055975;28;20492;-49
2022/10/08 02:33:13;;;;;;;9.45;2.08;;;12.30;79.30;;;;;;5055691;28;20104;-46
2022/10/08 02:35:44;;;;;;;16.83;2.83;;;12.30;79.50;;;;;;5055493;28;20028;-47
2022/10/08 02:38:19;;;;;;;7.97;3.35;;;12.30;79.40;;;;;;5055694;28;20162;-46
2022/10/08 02:40:50;;;;;;;12.77;4.35;;;12.40;79.20;;;;;;5055420;28;20075;-47
2022/10/08 02:43:29;;;;;;;9.70;2.28;;;12.50;78.80;;;;;;5055747;28;20074;-47
2022/10/08 02:46:15;;;;;;;11.55;3.13;;;12.50;78.90;;;;;;5055209;28;20047;-47
2022/10/08 02:48:51;;;;;;;4.93;2.28;;;12.50;78.90;;;;;;5055880;28;20032;-46
2022/10/08 02:51:18;;;;;;;8.68;2.50;;;12.60;79.00;;;;;;5054237;28;20028;-48
2022/10/08 02:53:46;;;;;;;6.90;2.15;;;12.70;79.00;;;;;;5055769;28;20025;-45
2022/10/08 02:56:23;;;;;;;22.27;5.03;;;12.60;79.30;;;;;;5055590;28;20021;-45
2022/10/08 02:58:48;;;;;;;7.55;1.95;;;12.60;79.20;;;;;;5055251;28;20017;-47
2022/10/08 03:01:27;;;;;;;9.40;2.60;;;12.60;79.40;;;;;;5055444;28;20025;-49
2022/10/08 03:04:13;;;;;;;8.88;2.47;;;12.60;79.30;;;;;;5053910;28;20033;-47
2022/10/08 03:06:39;;;;;;;9.05;2.75;;;12.50;80.10;;;;;;5055468;28;20028;-47
2022/10/08 03:09:07;;;;;;;10.70;3.90;;;12.30;81.90;;;;;;5055093;28;20449;-47
2022/10/08 03:11:34;;;;;;;10.43;3.20;;;12.30;83.00;;;;;;5054987;28;20101;-47
2022/10/08 03:14:04;;;;;;;15.60;4.25;;;12.20;83.10;;;;;;5054677;28;20033;-46
2022/10/08 03:16:39;;;;;;;10.02;4.03;;;12.10;83.40;;;;;;5055281;28;20021;-49
2022/10/08 03:19:07;;;;;;;17.58;3.47;;;12.10;83.60;;;;;;5055280;28;20029;-49
2022/10/08 03:21:33;;;;;;;11.00;3.58;;;12.10;84.00;;;;;;5055547;28;20028;-47
2022/10/08 03:23:59;;;;;;;14.43;3.55;;;12.00;85.00;;;;;;5055210;28;20381;-49
2022/10/08 03:26:24;;;;;;;10.95;2.75;;;11.70;86.90;;;;;;5053874;28;20025;-53
2022/10/08 03:28:53;;;;;;;15.43;3.97;;;11.40;89.00;;;;;;5056076;28;20084;-47
2022/10/08 03:31:19;;;;;;;9.57;3.72;;;11.30;90.20;;;;;;5055249;28;20104;-47
2022/10/08 03:33:49;;;;;;;11.55;4.22;;;11.20;90.70;;;;;;5055482;28;20108;-47
2022/10/08 03:36:15;;;;;;;;;;;11.10;91.00;;;;;;5056165;28;20021;-47
2022/10/08 03:38:40;;;;;;;17.92;4.53;;;11.00;91.10;;;;;;5055423;28;19978;-48
2022/10/08 03:41:08;;;;;;;18.90;4.85;;;10.90;91.50;;;;;;5055748;28;20492;-46
2022/10/08 03:43:34;;;;;;;16.45;4.70;;;10.90;91.90;;;;;;5055775;28;20033;-46
2022/10/08 03:46:00;;;;;;;20.33;5.22;;;10.90;92.20;;;;;;5054572;28;20373;-46
2022/10/08 03:48:26;;;;;;;17.15;5.10;;;10.80;92.60;;;;;;5054497;28;20032;-47
2022/10/08 03:50:56;;;;;;;16.38;5.78;;;10.80;92.80;;;;;;5054380;28;20112;-47
2022/10/08 03:53:22;;;;;;;20.92;5.88;;;10.90;92.80;;;;;;5054507;28;20036;-48
2022/10/08 03:55:48;;;;;;;28.10;6.55;;;10.80;92.90;;;;;;5054120;28;20024;-47
2022/10/08 03:58:14;;;;;;;16.50;5.32;;;10.90;92.90;;;;;;5053411;28;20021;-48
2022/10/08 04:00:40;;;;;;;13.52;5.80;;;10.90;92.90;;;;;;5052695;28;20021;-47
2022/10/08 04:03:06;;;;;;;21.75;7.20;;;10.90;92.90;;;;;;5054012;28;20029;-47
2022/10/08 04:05:31;;;;;;;17.20;9.20;;;10.90;93.00;;;;;;5053884;28;20457;-46
2022/10/08 04:07:57;;;;;;;14.80;6.80;;;10.90;93.10;;;;;;5054312;28;20025;-47
2022/10/08 04:10:23;;;;;;;18.98;7.32;;;10.90;93.10;;;;;;5055321;28;20017;-46
2022/10/08 04:12:49;;;;;;;19.83;7.88;;;10.90;93.20;;;;;;5053399;28;20393;-51
2022/10/08 04:15:15;;;;;;;21.45;7.28;;;10.90;93.30;;;;;;5055069;28;20025;-51
2022/10/08 04:17:41;;;;;;;16.80;8.05;;;10.90;93.40;;;;;;5055364;28;20123;-47
2022/10/08 04:20:08;;;;;;;23.70;9.27;;;11.00;93.40;;;;;;5053981;28;20021;-47
2022/10/08 04:22:34;;;;;;;32.15;8.95;;;11.00;93.40;;;;;;5037657;28;20017;-46
2022/10/08 04:25:00;;;;;;;29.40;10.40;;;11.00;93.40;;;;;;5053855;28;20154;-47
2022/10/08 04:27:26;;;;;;;25.75;10.88;;;11.10;93.40;;;;;;5055140;28;20052;-47
2022/10/08 04:29:52;;;;;;;26.48;10.38;;;11.10;93.30;;;;;;5054088;28;20031;-47
2022/10/08 04:32:21;;;;;;;25.13;10.65;;;11.00;93.30;;;;;;5054433;28;20036;-46
2022/10/08 04:34:47;;;;;;;26.17;10.68;;;11.00;93.40;;;;;;5055714;28;20029;-47
2022/10/08 04:37:13;;;;;;;19.40;11.70;;;11.10;93.40;;;;;;5037352;28;20032;-46
2022/10/08 04:39:39;;;;;;;24.42;11.32;;;11.10;93.30;;;;;;5053793;28;20381;-46
2022/10/08 04:42:05;;;;;;;27.17;10.38;;;11.20;93.30;;;;;;5054505;28;20029;-46
2022/10/08 04:44:31;;;;;;;22.58;10.05;;;11.20;93.30;;;;;;5054542;28;20028;-46
2022/10/08 04:46:57;;;;;;;16.20;8.88;;;11.20;93.10;;;;;;5055045;28;20037;-46
2022/10/08 04:49:24;;;;;;;27.20;10.93;;;11.20;93.10;;;;;;5054616;28;20025;-46
2022/10/08 04:51:50;;;;;;;18.77;8.73;;;11.20;93.10;;;;;;5037235;28;20026;-46
2022/10/08 04:54:16;;;;;;;27.80;9.23;;;11.20;93.20;;;;;;5052799;28;20039;-47
2022/10/08 04:56:42;;;;;;;25.92;9.48;;;11.30;93.10;;;;;;5054572;28;20021;-48
2022/10/08 04:59:08;;;;;;;21.50;8.65;;;11.30;93.10;;;;;;5054228;28;20043;-46
2022/10/08 05:01:34;;;;;;;30.95;10.00;;;11.30;93.00;;;;;;5054559;28;20029;-47
2022/10/08 05:04:00;;;;;;;15.27;7.85;;;11.30;92.90;;;;;;5054834;28;20028;-46
2022/10/08 05:06:28;;;;;;;18.27;8.27;;;11.30;93.00;;;;;;5053225;28;20032;-47
2022/10/08 05:08:54;;;;;;;24.23;11.65;;;11.30;92.70;;;;;;5054087;28;20036;-47
2022/10/08 05:11:24;;;;;;;16.83;7.47;;;11.20;92.70;;;;;;5055119;28;20068;-47
2022/10/08 05:13:51;;;;;;;23.67;8.57;;;11.20;92.90;;;;;;5053225;28;20052;-46
2022/10/08 05:16:17;;;;;;;14.82;7.50;;;11.30;93.00;;;;;;5052883;28;20029;-46
2022/10/08 05:18:43;;;;;;;23.73;10.10;;;11.30;93.10;;;;;;5052730;28;20029;-48
2022/10/08 05:21:20;;;;;;;30.70;9.73;;;11.30;93.00;;;;;;5053164;28;20436;-47
2022/10/08 05:23:46;;;;;;;25.77;8.50;;;11.30;92.80;;;;;;5053453;28;20044;-47
2022/10/08 05:26:20;;;;;;;20.73;9.15;;;11.30;92.70;;;;;;5052813;28;20109;-46
2022/10/08 05:28:47;;;;;;;25.02;8.20;;;11.30;92.70;;;;;;5053202;28;20017;-46
2022/10/08 05:31:13;;;;;;;22.60;8.63;;;11.30;92.70;;;;;;5053648;28;20025;-46
2022/10/08 05:33:39;;;;;;;23.63;9.32;;;11.30;92.80;;;;;;5034861;28;20033;-48
2022/10/08 17:13:42;;;;;;;4.28;2.45;;;13.20;71.00;;;;;;5113921;27;20557;-39
2022/10/08 17:16:08;;;;;;;4.35;1.70;;;13.10;71.10;;;;;;5110814;28;20490;-38
2022/10/08 17:18:34;;;;;;;5.88;2.15;;;13.10;71.30;;;;;;5112172;28;20379;-38
2022/10/08 17:21:00;;;;;;;5.18;1.60;;;13.00;71.60;;;;;;5111544;28;20429;-38
2022/10/08 17:23:32;;;;;;;4.38;2.53;;;13.00;71.80;;;;;;5109838;28;20024;-38
2022/10/08 17:26:00;;;;;;;7.30;2.00;;;13.00;72.10;;;;;;5111172;28;20058;-40
2022/10/08 17:28:27;;;;;;;6.68;1.58;;;13.00;72.10;;;;;;5111088;28;20024;-40
2022/10/08 17:30:58;;;;;;;3.33;1.38;;;13.10;71.70;;;;;;5111408;28;20103;-38
2022/10/08 17:33:27;;;;;;;1.90;1.50;;;13.10;71.20;;;;;;5110822;28;20077;-38
2022/10/08 17:36:17;;;;;;;6.15;1.92;;;13.20;70.80;;;;;;5111055;28;20084;-38
2022/10/08 17:38:45;;;;;;;5.18;1.65;;;13.10;70.90;;;;;;5110791;28;20017;-38
2022/10/08 17:41:29;;;;;;;9.35;1.40;;;13.00;71.20;;;;;;5110771;28;20028;-40
2022/10/08 17:43:56;;;;;;;6.03;1.95;;;12.90;71.30;;;;;;5110958;28;20115;-39
2022/10/08 17:46:25;;;;;;;8.60;2.13;;;12.90;71.60;;;;;;5111348;28;20139;-39
2022/10/08 17:48:51;;;;;;;10.65;1.67;;;12.90;71.80;;;;;;5110861;28;20107;-39
2022/10/08 17:51:19;;;;;;;8.48;1.95;;;12.80;72.50;;;;;;5111026;28;20039;-39
2022/10/08 17:53:51;;;;;;;4.28;2.15;;;12.70;72.70;;;;;;5110947;28;20043;-39
2022/10/08 17:56:17;;;;;;;10.65;1.70;;;12.50;73.20;;;;;;5110209;28;20020;-39
2022/10/08 17:58:43;;;;;;;6.18;2.65;;;12.40;73.80;;;;;;5110055;28;20470;-39
2022/10/08 18:01:17;;;;;;;10.63;2.60;;;12.50;73.90;;;;;;5110978;28;20023;-41
2022/10/08 18:03:49;;;;;;;8.38;2.85;;;12.40;74.20;;;;;;5110585;28;20060;-39
2022/10/08 18:06:14;;;;;;;5.50;2.05;;;12.30;73.90;;;;;;5110484;28;20418;-40
2022/10/08 18:08:40;;;;;;;7.30;2.53;;;12.40;73.70;;;;;;5110834;28;20020;-39
2022/10/08 18:11:10;;;;;;;6.85;1.90;;;12.30;73.90;;;;;;5111046;28;20023;-38
2022/10/08 18:13:35;;;;;;;7.53;2.33;;;12.30;73.40;;;;;;5109016;28;20040;-38
2022/10/08 18:16:03;;;;;;;6.63;2.03;;;12.30;73.30;;;;;;5110217;28;20464;-40
2022/10/08 18:18:31;;;;;;;10.93;2.10;;;12.20;72.90;;;;;;5109967;28;20081;-39
2022/10/08 18:20:59;;;;;;;10.40;3.25;;;12.20;72.90;;;;;;5092053;28;20020;-39
2022/10/08 18:23:27;;;;;;;10.10;2.45;;;12.10;73.30;;;;;;5106120;28;20024;-40
2022/10/08 18:25:53;;;;;;;8.98;1.95;;;12.10;73.20;;;;;;5097254;28;20024;-39
2022/10/08 18:28:19;;;;;;;9.10;2.30;;;12.00;73.00;;;;;;5098012;28;20353;-39
2022/10/08 18:30:47;;;;;;;7.93;1.60;;;11.90;73.10;;;;;;5099024;28;20024;-39
2022/10/08 18:33:14;;;;;;;5.40;2.35;;;11.90;72.60;;;;;;5096389;28;20224;-39
2022/10/08 18:35:39;;;;;;;6.78;2.00;;;11.90;72.80;;;;;;5098031;28;20456;-39
2022/10/08 18:38:05;;;;;;;10.02;2.60;;;11.80;72.90;;;;;;5095698;28;20031;-39
2022/10/08 18:40:31;;;;;;;12.68;4.05;;;11.80;73.00;;;;;;5096079;28;20463;-39
2022/10/08 18:42:57;;;;;;;16.92;4.43;;;11.80;73.20;;;;;;5096574;28;20074;-39
2022/10/08 18:45:23;;;;;;;13.55;2.65;;;11.80;73.30;;;;;;5097770;28;20032;-51
2022/10/08 18:47:49;;;;;;;8.15;2.08;;;11.70;74.00;;;;;;5098294;28;20119;-47
2022/10/08 18:50:15;;;;;;;11.63;2.53;;;11.70;73.50;;;;;;5097339;28;20060;-49
2022/10/08 18:52:40;;;;;;;6.28;2.30;;;11.60;74.00;;;;;;5096287;28;20036;-47
2022/10/08 18:55:06;;;;;;;11.30;3.90;;;11.70;72.50;;;;;;5095979;28;20028;-47
2022/10/08 18:57:32;;;;;;;9.30;2.90;;;11.70;72.50;;;;;;5094552;28;20028;-48
2022/10/08 18:59:57;;;;;;;3.78;2.58;;;11.70;72.50;;;;;;5096184;28;20479;-47
2022/10/08 19:02:23;;;;;;;8.20;4.22;;;11.60;72.90;;;;;;5094869;28;20062;-47
2022/10/08 19:04:49;;;;;;;10.52;4.45;;;11.50;73.40;;;;;;5095934;28;20106;-47
2022/10/08 19:07:15;;;;;;;4.50;2.60;;;11.40;74.00;;;;;;5094435;28;20024;-48
2022/10/08 19:09:40;;;;;;;8.30;4.13;;;11.40;74.50;;;;;;5095568;28;20107;-47
2022/10/08 19:12:07;;;;;;;7.88;3.55;;;11.30;74.80;;;;;;5095133;28;20036;-47
2022/10/08 19:14:33;;;;;;;12.07;4.30;;;11.30;75.20;;;;;;5095848;28;20016;-48
2022/10/08 19:16:59;;;;;;;8.68;2.97;;;11.30;75.30;;;;;;5095319;28;20024;-47
2022/10/08 19:19:30;;;;;;;7.97;2.80;;;11.20;75.40;;;;;;5094411;28;20042;-47
2022/10/08 19:21:59;;;;;;;7.43;2.95;;;11.20;75.50;;;;;;5095617;28;20027;-48
2022/10/08 19:24:25;;;;;;;6.50;3.65;;;11.10;75.90;;;;;;5095450;28;20418;-46
2022/10/08 19:26:52;;;;;;;7.75;2.35;;;11.10;76.20;;;;;;5095067;28;20031;-47
2022/10/08 19:29:23;;;;;;;6.93;2.10;;;11.10;75.60;;;;;;5095481;28;20103;-47
2022/10/08 19:31:50;;;;;;;10.88;3.15;;;11.10;75.50;;;;;;5094749;28;20028;-49
2022/10/08 19:34:18;;;;;;;14.25;2.92;;;11.10;75.60;;;;;;5095273;28;20016;-48
2022/10/08 19:36:44;;;;;;;6.82;3.17;;;11.00;75.80;;;;;;5092983;28;20153;-47
2022/10/08 19:39:13;;;;;;;9.30;2.83;;;11.00;76.20;;;;;;5095325;28;20069;-49
2022/10/08 19:41:41;;;;;;;7.68;3.22;;;10.90;76.70;;;;;;5094142;28;20028;-49
2022/10/08 19:44:07;;;;;;;10.25;2.63;;;10.80;77.30;;;;;;5093995;28;20089;-48
2022/10/08 19:46:32;;;;;;;16.58;3.00;;;10.80;77.90;;;;;;5093864;28;20032;-48
2022/10/08 19:49:00;;;;;;;5.45;2.58;;;10.70;78.10;;;;;;5094413;28;20031;-47
2022/10/08 19:51:28;;;;;;;8.93;3.22;;;10.70;78.20;;;;;;5094032;28;20020;-48
2022/10/08 19:53:54;;;;;;;16.38;2.70;;;10.60;78.50;;;;;;5095149;28;20091;-47
2022/10/08 19:56:26;;;;;;;8.50;3.25;;;10.50;78.80;;;;;;5095421;28;20069;-51
2022/10/08 19:58:53;;;;;;;8.20;2.20;;;10.50;79.10;;;;;;5095776;28;20380;-48
2022/10/08 20:01:24;;;;;;;5.10;1.67;;;10.30;79.50;;;;;;5095607;28;20066;-47
2022/10/08 20:03:57;;;;;;;15.43;2.03;;;10.30;79.80;;;;;;5094103;28;20024;-47
2022/10/08 20:06:25;;;;;;;10.40;3.60;;;10.20;80.00;;;;;;5095486;28;20533;-52
2022/10/08 20:08:53;;;;;;;8.80;2.70;;;10.10;80.30;;;;;;5096044;28;20031;-46
2022/10/08 20:11:19;;;;;;;9.50;4.22;;;10.10;80.50;;;;;;5095515;28;20456;-47
2022/10/08 20:13:47;;;;;;;8.00;2.83;;;10.10;80.90;;;;;;5095400;28;20032;-48
2022/10/08 20:16:33;;;;;;;12.90;4.28;;;10.10;81.00;;;;;;5094757;28;20057;-48
2022/10/08 20:19:06;;;;;;;4.75;2.50;;;10.10;81.20;;;;;;5077064;28;20379;-46
2022/10/08 20:21:34;;;;;;;6.55;3.40;;;10.00;81.10;;;;;;5095161;28;20077;-48
2022/10/08 20:24:00;;;;;;;3.70;1.77;;;9.90;81.20;;;;;;5094340;28;20027;-47
2022/10/08 20:26:31;;;;;;;17.65;3.08;;;9.90;81.40;;;;;;5094064;28;20460;-47
2022/10/08 20:28:59;;;;;;;7.68;3.42;;;9.90;81.40;;;;;;5093951;28;20028;-47
2022/10/08 20:31:30;;;;;;;7.22;3.85;;;10.00;81.60;;;;;;5094026;28;20024;-46
2022/10/08 20:34:04;;;;;;;10.38;3.83;;;9.90;81.90;;;;;;5092648;28;20022;-46
2022/10/08 20:36:33;;;;;;;6.43;4.25;;;9.90;82.20;;;;;;5094268;28;20020;-46
2022/10/08 20:38:59;;;;;;;8.77;4.45;;;9.90;82.30;;;;;;5094003;28;20024;-48
2022/10/08 20:41:25;;;;;;;11.98;3.78;;;9.80;82.40;;;;;;5094096;28;20106;-47
2022/10/08 20:43:51;;;;;;;4.97;2.47;;;9.90;82.30;;;;;;5093685;28;20039;-49
2022/10/08 20:46:18;;;;;;;5.45;1.95;;;9.70;82.00;;;;;;5094811;28;20016;-38
2022/10/08 20:48:44;;;;;;;7.75;3.53;;;9.50;82.60;;;;;;5093582;28;20048;-39
2022/10/08 20:51:15;;;;;;;9.30;2.80;;;9.30;83.20;;;;;;5092452;28;20426;-38
2022/10/08 20:54:12;;;;;;;5.53;3.10;;;9.50;83.30;;;;;;5094095;28;20352;-39
2022/10/08 20:56:38;;;;;;;12.95;1.92;;;9.40;83.20;;;;;;5081457;28;20040;-38
2022/10/08 20:59:05;;;;;;;9.73;3.60;;;9.40;83.40;;;;;;5092387;28;20365;-37
2022/10/08 21:01:33;;;;;;;6.53;3.00;;;9.30;83.60;;;;;;5093716;28;20387;-39
2022/10/08 21:04:00;;;;;;;8.20;3.67;;;9.30;83.80;;;;;;5093469;28;20440;-39
2022/10/08 21:06:33;;;;;;;6.90;3.45;;;9.30;84.00;;;;;;5093875;28;20491;-39
2022/10/08 21:08:59;;;;;;;5.97;3.33;;;9.20;84.30;;;;;;5093864;28;20409;-48
2022/10/08 21:11:27;;;;;;;11.15;3.42;;;9.20;84.40;;;;;;5093370;28;20024;-39
2022/10/08 21:13:54;;;;;;;11.65;3.90;;;9.20;84.50;;;;;;5093819;28;20426;-38
2022/10/08 21:16:23;;;;;;;6.65;2.90;;;9.10;84.60;;;;;;5093622;28;20103;-39
2022/10/08 21:18:51;;;;;;;9.15;2.85;;;9.10;84.70;;;;;;5093345;28;20464;-39
2022/10/08 21:21:17;;;;;;;14.75;5.50;;;9.00;84.90;;;;;;5094756;28;20029;-38
2022/10/08 21:23:43;;;;;;;17.58;7.50;;;9.00;85.10;;;;;;5095182;28;20020;-39
2022/10/08 21:26:22;;;;;;;15.85;7.68;;;9.00;85.40;;;;;;5092233;28;20031;-39
2022/10/08 21:28:50;;;;;;;13.52;7.45;;;9.00;85.60;;;;;;5093701;28;20026;-38
2022/10/08 21:31:17;;;;;;;15.40;8.60;;;8.90;85.80;;;;;;5093323;28;20050;-39
2022/10/08 21:33:45;;;;;;;16.83;7.43;;;8.80;85.90;;;;;;5093226;28;20071;-40
2022/10/08 21:36:19;;;;;;;15.13;7.60;;;8.90;86.20;;;;;;5093441;28;20024;-45
2022/10/08 21:38:46;;;;;;;10.95;4.43;;;8.90;86.30;;;;;;5094694;28;20375;-48
2022/10/08 21:41:14;;;;;;;13.50;3.55;;;8.80;86.30;;;;;;5092158;28;20031;-48
2022/10/08 21:43:44;;;;;;;14.15;3.33;;;8.80;86.30;;;;;;5093642;28;20035;-46
2022/10/08 21:46:14;;;;;;;11.68;5.00;;;8.80;86.30;;;;;;5093309;28;20192;-47
2022/10/08 21:48:40;;;;;;;9.93;4.00;;;8.80;86.40;;;;;;5093365;28;20528;-47
2022/10/08 21:51:14;;;;;;;7.68;3.78;;;8.70;86.30;;;;;;5093539;28;20051;-47
2022/10/08 21:53:44;;;;;;;8.20;3.35;;;8.70;86.40;;;;;;5093163;28;20026;-47
2022/10/08 21:56:13;;;;;;;14.63;5.45;;;8.60;86.50;;;;;;5093565;28;20034;-47
2022/10/08 21:58:50;;;;;;;15.02;7.15;;;8.50;86.60;;;;;;5093098;28;20035;-48
2022/10/08 22:01:22;;;;;;;21.30;9.23;;;8.60;86.80;;;;;;5096558;28;20028;-47
2022/10/08 22:03:59;;;;;;;22.40;7.32;;;8.50;87.00;;;;;;5095781;28;20035;-48
2022/10/08 22:06:26;;;;;;;17.10;7.07;;;8.50;87.10;;;;;;5097219;28;20032;-48
2022/10/08 22:08:52;;;;;;;11.05;6.32;;;8.50;87.20;;;;;;5097151;28;20433;-46
2022/10/08 22:11:18;;;;;;;15.70;4.40;;;8.50;87.30;;;;;;5096527;28;20051;-46
2022/10/08 22:13:45;;;;;;;18.65;6.68;;;8.50;87.30;;;;;;5096816;28;20028;-52
2022/10/08 22:16:13;;;;;;;16.20;9.40;;;8.50;87.30;;;;;;5097844;28;20479;-47
2022/10/08 22:18:39;;;;;;;17.33;7.70;;;8.40;87.40;;;;;;5096539;28;20030;-46
2022/10/08 22:21:10;;;;;;;17.15;7.55;;;8.50;87.60;;;;;;5097068;28;20099;-47
2022/10/08 22:23:36;;;;;;;11.75;5.82;;;8.40;87.60;;;;;;5095117;28;20028;-46
2022/10/08 22:26:05;;;;;;;12.20;7.35;;;8.40;87.70;;;;;;5096487;28;20041;-47
2022/10/08 22:28:32;;;;;;;12.82;5.07;;;8.40;87.80;;;;;;5094917;28;20035;-47
2022/10/08 22:31:02;;;;;;;11.85;4.57;;;8.30;87.70;;;;;;5096131;28;20417;-47
2022/10/08 22:33:29;;;;;;;14.70;7.30;;;8.30;87.60;;;;;;5096346;28;20077;-50
2022/10/08 22:36:08;;;;;;;20.77;7.90;;;8.30;87.70;;;;;;5096406;28;20150;-49
2022/10/08 22:38:36;;;;;;;21.10;8.98;;;8.30;87.80;;;;;;5095247;28;20023;-47
2022/10/08 22:41:07;;;;;;;14.23;7.78;;;8.20;87.90;;;;;;5096307;28;20375;-48
2022/10/08 22:43:35;;;;;;;11.80;4.65;;;8.20;88.00;;;;;;5096133;28;20066;-46
2022/10/08 22:46:02;;;;;;;10.95;4.72;;;8.10;88.00;;;;;;5096390;28;20544;-48
2022/10/08 22:48:28;;;;;;;13.38;5.93;;;8.10;88.10;;;;;;5096121;28;20020;-47
2022/10/08 22:50:54;;;;;;;19.08;7.70;;;8.00;88.10;;;;;;5096082;28;20031;-47
2022/10/08 22:53:19;;;;;;;19.92;9.07;;;8.00;88.20;;;;;;5096088;28;20422;-48
2022/10/08 22:55:45;;;;;;;25.50;11.32;;;7.90;88.30;;;;;;5094524;28;20031;-48
2022/10/08 22:58:11;;;;;;;24.25;10.57;;;8.00;88.40;;;;;;5095717;28;20078;-51
2022/10/08 23:00:36;;;;;;;25.77;11.07;;;7.90;88.40;;;;;;5096017;28;20028;-48
2022/10/08 23:03:02;;;;;;;31.23;14.23;;;7.90;88.50;;;;;;5094154;28;20074;-48
2022/10/08 23:05:28;;;;;;;26.00;11.93;;;7.80;88.50;;;;;;5095389;28;20056;-49
2022/10/08 23:07:56;;;;;;;22.75;11.77;;;7.80;88.60;;;;;;5095636;28;20024;-48
2022/10/08 23:10:23;;;;;;;25.98;9.75;;;7.80;88.50;;;;;;5095206;28;20024;-49
2022/10/08 23:12:51;;;;;;;20.80;10.43;;;7.70;88.60;;;;;;5095186;28;20083;-48
2022/10/08 23:15:17;;;;;;;23.50;10.10;;;7.70;88.70;;;;;;5095932;28;20024;-49
2022/10/08 23:17:43;;;;;;;21.83;9.60;;;7.70;88.70;;;;;;5095898;28;20120;-48
2022/10/08 23:20:08;;;;;;;17.95;9.50;;;7.70;88.80;;;;;;5096098;28;20543;-49
2022/10/08 23:22:34;;;;;;;16.10;7.95;;;7.70;88.80;;;;;;5095911;28;20361;-47
2022/10/08 23:25:00;;;;;;;19.30;8.50;;;7.70;88.70;;;;;;5096800;28;20050;-48
2022/10/08 23:27:25;;;;;;;12.18;4.70;;;7.70;88.80;;;;;;5097023;28;20035;-49
2022/10/08 23:29:51;;;;;;;12.15;5.90;;;7.70;88.90;;;;;;5096274;28;20115;-46
2022/10/08 23:32:16;;;;;;;15.73;8.02;;;7.70;88.80;;;;;;5096823;28;20034;-49
2022/10/08 23:34:42;;;;;;;18.08;8.40;;;7.70;88.80;;;;;;5096326;28;20035;-48
2022/10/08 23:37:08;;;;;;;13.68;7.40;;;7.70;88.70;;;;;;5096907;28;20130;-48
2022/10/08 23:39:33;;;;;;;22.25;8.73;;;7.60;88.80;;;;;;5096786;28;20356;-50
2022/10/08 23:41:59;;;;;;;13.65;8.45;;;7.60;88.80;;;;;;5095617;28;20024;-47
2022/10/08 23:44:25;;;;;;;18.70;9.52;;;7.60;88.90;;;;;;5096421;28;20036;-50
2022/10/08 23:46:50;;;;;;;16.25;9.20;;;7.50;88.90;;;;;;5095570;28;20480;-48
2022/10/08 23:49:16;;;;;;;18.83;9.57;;;7.50;88.80;;;;;;5095112;28;20021;-47
2022/10/08 23:51:42;;;;;;;18.05;10.30;;;7.40;88.80;;;;;;5094997;28;20494;-48
2022/10/08 23:54:07;;;;;;;18.00;9.23;;;7.30;88.80;;;;;;5095345;28;20099;-48
2022/10/08 23:56:33;;;;;;;13.18;8.88;;;7.30;88.90;;;;;;5095093;28;20082;-48
2022/10/08 23:58:59;;;;;;;16.55;9.77;;;7.30;89.10;;;;;;5098354;28;20107;-39
